Time;durP1;ratioP1;P1;durP2;ratioP2;P2;SDS_P1;SDS_P2;PMS_P1;PMS_P2;Temp;Humidity;BMP_temperature;BMP_pressure;BME280_temperature;BME280_humidity;BME280_pressure;Samples;Min_cycle;Max_cycle;Signal;HPM_P1;HPM_P2
2023/04/12 00:02:07;;;;;;;9.53;8.63;;;;;;;9.87;55.23;94015.13;4991918;28;20215;-69
2023/04/12 00:04:34;;;;;;;10.20;8.97;;;;;;;9.89;55.20;94010.50;4990276;28;20315;-69
2023/04/12 00:07:01;;;;;;;10.40;8.97;;;;;;;9.81;55.56;94006.16;4992082;28;20219;-69
2023/04/12 00:09:30;;;;;;;9.97;8.97;;;;;;;9.85;55.40;94009.22;4992118;28;20215;-69
2023/04/12 00:11:57;;;;;;;10.40;9.40;;;;;;;9.88;55.41;94008.88;4992230;28;20186;-69
2023/04/12 00:14:23;;;;;;;10.67;9.67;;;;;;;9.75;55.58;93991.06;4992243;28;20227;-70
2023/04/12 00:16:49;;;;;;;10.83;9.77;;;;;;;9.79;55.68;93997.63;4977053;28;20223;-69
2023/04/12 00:19:15;;;;;;;10.07;9.07;;;;;;;9.63;55.90;93998.50;4991268;28;20250;-69
2023/04/12 00:21:41;;;;;;;11.13;10.03;;;;;;;9.61;56.39;93986.53;4990002;28;20219;-69
2023/04/12 00:24:07;;;;;;;9.97;9.03;;;;;;;9.70;56.08;93993.38;4991904;28;20251;-69
2023/04/12 00:26:32;;;;;;;9.87;8.93;;;;;;;9.74;56.03;93999.13;4991996;28;20207;-69
2023/04/12 00:28:58;;;;;;;9.90;9.00;;;;;;;9.52;56.27;93996.25;4991269;28;20227;-69
2023/04/12 00:31:23;;;;;;;10.03;9.03;;;;;;;9.82;55.55;93986.75;4991421;28;20235;-69
2023/04/12 00:33:49;;;;;;;10.90;9.47;;;;;;;9.69;55.92;93997.81;4991815;28;20231;-69
2023/04/12 00:36:15;;;;;;;11.13;9.90;;;;;;;9.53;56.31;93991.84;4990616;28;20265;-69
2023/04/12 00:38:41;;;;;;;10.27;9.37;;;;;;;9.65;56.04;94001.78;4992522;28;20203;-69
2023/04/12 00:41:07;;;;;;;10.10;9.10;;;;;;;9.62;56.15;93989.00;4990446;28;20225;-69
2023/04/12 00:43:32;;;;;;;11.27;9.70;;;;;;;9.59;56.20;93996.38;4991289;28;20231;-69
2023/04/12 00:45:58;;;;;;;10.70;9.20;;;;;;;9.65;55.99;93996.53;4988912;28;20227;-69
2023/04/12 00:48:25;;;;;;;10.53;9.53;;;;;;;9.75;55.98;93990.25;4991169;28;20230;-69
2023/04/12 00:50:54;;;;;;;10.43;9.33;;;;;;;9.50;56.30;93988.53;4989238;28;20172;-69
2023/04/12 00:53:21;;;;;;;10.20;9.20;;;;;;;9.46;56.41;93991.69;4990584;28;20235;-69
2023/04/12 00:55:48;;;;;;;10.27;9.27;;;;;;;9.60;56.58;93983.09;4991783;28;20216;-69
2023/04/12 00:58:15;;;;;;;10.20;9.30;;;;;;;9.52;56.63;93985.78;4987774;28;20232;-69
2023/04/12 01:00:43;;;;;;;10.27;9.27;;;;;;;9.56;56.46;93980.97;4990908;28;20231;-69
2023/04/12 01:03:10;;;;;;;11.33;10.33;;;;;;;9.54;56.38;93980.34;4990577;28;20215;-69
2023/04/12 01:05:53;;;;;;;11.10;10.00;;;;;;;9.46;56.62;93976.78;4990690;28;20250;-69
2023/04/12 01:08:35;;;;;;;10.27;9.37;;;;;;;9.49;56.60;93971.19;4982225;28;20227;-69
2023/04/12 01:11:49;;;;;;;11.20;10.00;;;;;;;9.48;56.72;93979.22;4991025;28;20295;-69
2023/04/12 01:14:22;;;;;;;11.23;10.13;;;;;;;9.50;56.20;93978.06;4929718;29;20229;-69
2023/04/12 01:16:52;;;;;;;10.57;9.57;;;;;;;9.41;56.78;93976.47;4934263;29;20712;-69
2023/04/12 01:19:35;;;;;;;11.47;10.27;;;;;;;9.45;56.78;93974.31;4949880;29;20312;-69
2023/04/12 01:22:15;;;;;;;11.30;10.20;;;;;;;9.47;56.55;93977.59;4934852;29;20221;-68
2023/04/12 01:25:09;;;;;;;11.87;10.67;;;;;;;9.48;56.60;93973.97;4934730;29;20256;-68
2023/04/12 01:27:43;;;;;;;11.40;10.07;;;;;;;9.56;56.36;93973.94;4948780;29;20220;-69
2023/04/12 01:30:12;;;;;;;11.17;10.07;;;;;;;9.53;56.22;93971.66;4935068;28;20196;-67
2023/04/12 01:32:40;;;;;;;12.47;9.87;;;;;;;9.64;56.01;93963.38;4934476;29;20208;-69
2023/04/12 01:35:07;;;;;;;11.73;10.53;;;;;;;9.49;56.41;93970.38;4934496;29;20228;-70
2023/04/12 01:37:34;;;;;;;10.97;9.97;;;;;;;9.68;55.76;93972.56;4930170;29;20261;-68
2023/04/12 01:40:00;;;;;;;11.27;10.17;;;;;;;9.57;56.08;93977.34;4933575;29;20220;-68
2023/04/12 01:42:25;;;;;;;11.67;10.47;;;;;;;9.65;55.97;93962.41;4947120;29;20234;-69
2023/04/12 01:44:51;;;;;;;11.70;10.57;;;;;;;9.49;56.23;93968.56;4933786;29;20209;-68
2023/04/12 01:47:17;;;;;;;11.87;10.63;;;;;;;9.49;56.44;93962.50;4934711;29;20277;-69
2023/04/12 01:49:54;;;;;;;12.63;11.40;;;;;;;9.48;56.47;93966.91;4937232;28;20216;-68
2023/04/12 01:52:25;;;;;;;12.43;11.13;;;;;;;9.51;56.47;93960.50;4979660;28;20218;-68
2023/04/12 01:54:56;;;;;;;11.63;10.47;;;;;;;9.49;56.38;93967.75;4984704;28;20246;-68
2023/04/12 01:57:22;;;;;;;11.67;10.47;;;;;;;9.57;56.32;93959.84;4990461;28;20203;-68
2023/04/12 01:59:49;;;;;;;11.60;9.83;;;;;;;9.33;56.93;93967.78;4991359;28;20187;-68
2023/04/12 02:02:15;;;;;;;11.17;10.17;;;;;;;9.36;56.90;93960.41;4994928;28;20255;-68
2023/04/12 02:04:42;;;;;;;11.33;10.13;;;;;;;9.38;56.84;93960.22;4993995;28;20235;-68
2023/04/12 02:07:08;;;;;;;11.53;10.37;;;;;;;9.30;57.06;93955.00;4997540;28;20243;-69
2023/04/12 02:09:37;;;;;;;12.90;10.80;;;;;;;9.29;57.31;93969.94;4990573;28;20223;-69
2023/04/12 02:12:03;;;;;;;12.80;9.90;;;;;;;9.39;56.95;93969.75;4993147;28;20187;-69
2023/04/12 02:14:30;;;;;;;11.67;10.43;;;;;;;9.39;56.81;93959.25;4994550;28;20230;-69
2023/04/12 02:16:57;;;;;;;12.57;11.27;;;;;;;9.31;57.17;93959.28;4993962;28;20228;-68
2023/04/12 02:19:23;;;;;;;12.23;11.03;;;;;;;9.40;57.09;93953.00;4997249;28;20239;-69
2023/04/12 02:21:49;;;;;;;12.73;11.33;;;;;;;9.45;56.72;93966.44;4989534;28;20227;-69
2023/04/12 02:24:15;;;;;;;12.17;10.97;;;;;;;9.30;56.85;93953.19;4993808;28;20295;-69
2023/04/12 02:26:41;;;;;;;12.37;11.17;;;;;;;9.40;56.66;93959.06;4987571;28;20296;-69
2023/04/12 02:29:08;;;;;;;12.70;11.37;;;;;;;9.38;56.90;93957.59;4993999;28;20242;-69
2023/04/12 02:31:35;;;;;;;13.93;11.97;;;;;;;9.30;57.03;93960.25;4994452;28;20250;-69
2023/04/12 02:34:01;;;;;;;12.53;11.33;;;;;;;9.29;56.80;93954.19;4989344;28;20247;-68
2023/04/12 02:36:27;;;;;;;12.63;11.33;;;;;;;9.32;57.09;93956.47;4993227;28;20239;-69
2023/04/12 02:38:53;;;;;;;12.37;11.07;;;;;;;9.24;57.30;93954.69;4994008;28;20183;-69
2023/04/12 02:41:20;;;;;;;12.23;10.97;;;;;;;9.43;56.83;93963.16;4991355;28;20267;-69
2023/04/12 02:43:45;;;;;;;12.43;11.13;;;;;;;9.35;56.92;93955.31;4993665;28;20230;-69
2023/04/12 02:46:24;;;;;;;12.27;11.07;;;;;;;9.23;57.24;93955.69;4993891;28;20216;-69
2023/04/12 02:48:50;;;;;;;13.40;12.10;;;;;;;9.31;57.21;93948.78;4993713;28;20247;-69
2023/04/12 02:51:15;;;;;;;12.87;11.50;;;;;;;9.31;57.16;93946.16;4993424;28;20184;-69
2023/04/12 02:53:41;;;;;;;11.83;10.70;;;;;;;9.42;57.16;93937.91;4992262;28;20191;-69
2023/04/12 02:56:07;;;;;;;12.67;11.30;;;;;;;9.40;56.69;93940.69;4993019;28;20299;-69
2023/04/12 02:58:34;;;;;;;13.57;11.77;;;;;;;9.45;56.41;93950.69;4994855;28;20246;-69
2023/04/12 03:01:00;;;;;;;12.43;11.23;;;;;;;9.45;56.09;93953.31;4993415;28;20273;-69
2023/04/12 03:03:27;;;;;;;14.53;10.50;;;;;;;9.38;56.81;93947.94;4992618;28;20223;-68
2023/04/12 03:05:53;;;;;;;11.97;10.77;;;;;;;9.32;56.95;93948.59;4993661;28;20263;-69
2023/04/12 03:08:20;;;;;;;12.53;11.33;;;;;;;9.31;57.13;93938.31;4993088;28;20246;-68
2023/04/12 03:10:46;;;;;;;11.90;10.67;;;;;;;9.44;56.89;93942.00;4992293;28;20219;-69
2023/04/12 03:13:11;;;;;;;12.47;11.17;;;;;;;9.48;56.86;93939.84;4992561;28;20244;-69
2023/04/12 03:15:37;;;;;;;13.27;11.97;;;;;;;9.60;56.89;93942.94;4995920;28;20223;-68
2023/04/12 03:18:02;;;;;;;12.80;11.40;;;;;;;9.63;56.90;93945.19;4993185;28;20205;-69
2023/04/12 03:20:28;;;;;;;14.63;13.23;;;;;;;9.42;57.68;93948.41;4973706;28;20215;-69
2023/04/12 03:22:54;;;;;;;15.67;13.77;;;;;;;9.55;57.83;93947.88;4993040;28;20216;-69
2023/04/12 03:25:19;;;;;;;15.07;13.47;;;;;;;9.62;58.21;93954.88;4992173;28;20283;-69
2023/04/12 03:27:45;;;;;;;14.63;13.13;;;;;;;9.60;58.24;93950.81;4991688;28;20224;-69
2023/04/12 03:30:11;;;;;;;14.80;13.33;;;;;;;9.67;58.05;93949.91;4992763;28;20191;-69
2023/04/12 03:32:38;;;;;;;14.73;13.10;;;;;;;9.79;57.88;93944.31;4993371;28;20187;-69
2023/04/12 03:35:06;;;;;;;15.63;14.03;;;;;;;9.66;58.30;93945.66;4992572;28;20219;-70
2023/04/12 03:37:32;;;;;;;16.43;13.57;;;;;;;9.71;58.28;93945.16;4992857;28;20223;-69
2023/04/12 03:39:58;;;;;;;18.17;15.47;;;;;;;9.74;58.25;93942.19;4989674;28;20286;-69
2023/04/12 03:42:24;;;;;;;15.70;14.13;;;;;;;9.72;58.06;93950.22;4993129;28;20219;-69
2023/04/12 03:44:51;;;;;;;18.20;15.87;;;;;;;9.68;58.28;93948.94;4992875;28;20660;-69
2023/04/12 03:47:17;;;;;;;16.83;13.93;;;;;;;9.81;57.93;93945.75;4989778;28;20216;-69
2023/04/12 03:49:42;;;;;;;18.27;15.73;;;;;;;9.71;58.08;93964.34;4992239;28;20229;-68
2023/04/12 03:52:08;;;;;;;15.53;13.70;;;;;;;9.75;57.82;93953.50;4992798;28;20215;-68
2023/04/12 03:54:34;;;;;;;16.43;14.50;;;;;;;9.51;58.13;93950.00;4990185;28;20223;-68
2023/04/12 03:57:00;;;;;;;16.07;14.47;;;;;;;9.51;58.46;93952.63;4993285;28;20211;-69
2023/04/12 03:59:26;;;;;;;15.93;14.23;;;;;;;9.49;57.77;93952.00;4992039;28;20220;-69
2023/04/12 04:01:52;;;;;;;15.20;13.60;;;;;;;9.47;57.50;93960.03;4992241;28;20231;-69
2023/04/12 04:04:17;;;;;;;16.43;14.83;;;;;;;9.56;57.23;93960.00;4992352;28;20267;-69
2023/04/12 04:06:42;;;;;;;16.60;14.30;;;;;;;9.60;57.43;93963.91;4992451;28;20251;-69
2023/04/12 04:09:08;;;;;;;17.33;15.13;;;;;;;9.48;57.69;93966.91;4988422;28;20214;-70
2023/04/12 04:11:34;;;;;;;17.10;15.40;;;;;;;9.66;57.22;93957.97;4991198;28;20193;-70
2023/04/12 04:14:00;;;;;;;16.03;14.53;;;;;;;9.59;57.52;93965.69;4990740;28;20246;-70
2023/04/12 04:16:25;;;;;;;16.00;14.30;;;;;;;9.62;57.14;93969.78;4992067;28;20243;-69
2023/04/12 04:18:51;;;;;;;16.43;14.70;;;;;;;9.48;57.33;93974.78;4991857;28;20219;-70
2023/04/12 04:21:18;;;;;;;16.33;14.63;;;;;;;9.66;57.27;93994.72;4991926;28;20183;-69
2023/04/12 04:23:44;;;;;;;15.83;13.93;;;;;;;9.56;57.35;93997.53;4992092;28;20190;-69
2023/04/12 04:26:10;;;;;;;17.17;15.47;;;;;;;9.58;57.57;93992.13;4989872;28;20215;-69
2023/04/12 04:28:37;;;;;;;15.60;13.83;;;;;;;9.54;57.69;94015.25;4986293;28;20219;-68
2023/04/12 04:31:05;;;;;;;15.93;14.20;;;;;;;9.58;57.53;93994.75;4991783;28;20223;-68
2023/04/12 04:33:34;;;;;;;17.43;15.63;;;;;;;9.71;57.04;94013.41;4991749;28;20220;-69
2023/04/12 04:36:02;;;;;;;17.03;15.30;;;;;;;9.68;57.22;94014.56;4992358;28;20194;-68
2023/04/12 04:38:28;;;;;;;17.93;14.83;;;;;;;9.63;57.09;94006.38;4991743;28;20224;-69
2023/04/12 04:40:54;;;;;;;17.35;15.70;;;;;;;9.44;57.69;94004.97;4990004;28;20274;-69
2023/04/12 04:43:20;;;;;;;16.37;14.67;;;;;;;9.62;57.18;94017.03;4991353;28;20271;-68
2023/04/12 04:45:49;;;;;;;17.43;14.87;;;;;;;9.66;56.71;94013.09;4991898;28;20227;-68
2023/04/12 04:48:15;;;;;;;16.43;14.67;;;;;;;9.51;57.20;94012.97;4983691;28;20181;-68
2023/04/12 04:50:41;;;;;;;15.40;13.80;;;;;;;9.66;57.04;94015.72;4991751;28;20543;-68
2023/04/12 04:53:06;;;;;;;15.70;14.10;;;;;;;9.55;57.10;94016.09;4991512;28;20215;-68
2023/04/12 04:55:32;;;;;;;16.37;14.63;;;;;;;9.49;57.03;94017.59;4991180;28;20230;-69
2023/04/12 04:57:57;;;;;;;15.73;13.47;;;;;;;9.51;56.55;94031.34;4988261;28;20297;-69
2023/04/12 05:00:24;;;;;;;14.57;13.07;;;;;;;9.54;56.78;94024.94;4991251;28;20226;-69
2023/04/12 05:02:50;;;;;;;13.83;12.47;;;;;;;9.52;56.47;94030.38;4976071;28;20269;-69
2023/04/12 05:05:16;;;;;;;14.17;12.67;;;;;;;9.40;56.64;94040.41;4991209;28;20243;-69
2023/04/12 05:07:42;;;;;;;14.00;12.60;;;;;;;9.52;56.08;94021.69;4991471;28;20222;-69
2023/04/12 05:10:09;;;;;;;13.23;11.83;;;;;;;9.69;55.55;94031.13;4989501;28;20231;-69
2023/04/12 05:12:35;;;;;;;13.90;12.50;;;;;;;9.58;55.63;94037.56;4998359;28;20226;-69
2023/04/12 05:15:01;;;;;;;13.00;11.57;;;;;;;9.69;55.24;94039.00;4991719;28;20187;-69
2023/04/12 05:17:27;;;;;;;14.93;11.03;;;;;;;9.56;55.59;94044.78;4989501;28;20758;-69
2023/04/12 05:19:52;;;;;;;12.03;10.80;;;;;;;9.47;55.60;94051.06;4986983;28;20755;-69
2023/04/12 05:22:21;;;;;;;11.53;9.23;;;;;;;9.60;54.67;94050.53;4988563;28;20260;-69
2023/04/12 05:24:47;;;;;;;10.67;9.60;;;;;;;9.77;54.07;94041.59;4979887;28;20230;-69
2023/04/12 05:27:15;;;;;;;10.47;8.30;;;;;;;9.63;54.58;94044.94;4989653;28;20191;-70
2023/04/12 05:29:41;;;;;;;9.97;8.73;;;;;;;9.68;54.13;94053.94;4993818;28;20198;-68
2023/04/12 05:32:07;;;;;;;9.27;8.43;;;;;;;9.81;53.16;94044.69;4992055;28;20230;-68
2023/04/12 05:34:32;;;;;;;9.13;8.00;;;;;;;9.70;53.25;94051.97;4991038;28;20222;-69
2023/04/12 05:36:58;;;;;;;9.40;8.23;;;;;;;9.56;53.60;94047.41;4990373;28;20241;-68
2023/04/12 05:39:24;;;;;;;8.00;7.20;;;;;;;9.67;53.04;94056.72;4987784;28;20200;-69
2023/04/12 05:41:50;;;;;;;9.40;7.90;;;;;;;9.80;52.56;94051.75;4991330;28;20249;-69
2023/04/12 05:44:15;;;;;;;8.40;7.60;;;;;;;9.67;52.38;94059.34;4991155;28;20219;-69
2023/04/12 05:46:41;;;;;;;8.30;7.47;;;;;;;9.53;53.08;94045.13;4990699;28;20224;-69
2023/04/12 05:49:07;;;;;;;9.20;7.17;;;;;;;9.72;51.74;94055.22;4991109;28;20222;-69
2023/04/12 05:51:32;;;;;;;8.17;6.53;;;;;;;9.67;51.64;94049.66;4989326;28;20219;-69
2023/04/12 05:53:58;;;;;;;7.77;6.13;;;;;;;9.80;51.17;94048.31;5005067;28;20191;-69
2023/04/12 05:56:23;;;;;;;6.57;5.83;;;;;;;9.85;50.89;94056.50;4990774;28;20219;-69
2023/04/12 05:58:50;;;;;;;7.43;6.57;;;;;;;9.91;50.63;94059.25;4987119;28;20245;-69
2023/04/12 06:01:18;;;;;;;11.88;6.13;;;;;;;9.91;50.12;94048.75;4990006;28;20223;-70
2023/04/12 06:03:43;;;;;;;6.40;5.57;;;;;;;9.89;50.15;94065.66;4989117;28;20252;-69
2023/04/12 06:06:09;;;;;;;5.97;5.23;;;;;;;9.76;50.13;94060.16;4998964;28;20191;-69
2023/04/12 06:08:36;;;;;;;6.77;5.90;;;;;;;9.64;50.39;94064.94;4987282;28;20188;-69
2023/04/12 06:11:03;;;;;;;5.40;4.90;;;;;;;9.72;49.59;94070.97;4990919;28;20310;-69
2023/04/12 06:13:28;;;;;;;6.23;4.73;;;;;;;9.60;50.05;94071.53;4974851;28;20234;-69
2023/04/12 06:15:54;;;;;;;5.57;5.00;;;;;;;9.63;50.32;94087.75;4990858;28;20219;-69
2023/04/12 06:18:19;;;;;;;7.50;5.63;;;;;;;9.53;50.65;94086.31;4991113;28;20330;-69
2023/04/12 06:20:45;;;;;;;6.10;5.28;;;;;;;9.46;51.17;94091.38;4991523;28;20202;-69
2023/04/12 06:23:10;;;;;;;5.50;5.00;;;;;;;9.49;50.94;94098.94;4990702;28;20219;-69
2023/04/12 06:25:36;;;;;;;6.93;5.70;;;;;;;9.67;51.00;94102.16;4992302;28;20217;-68
2023/04/12 06:28:02;;;;;;;6.23;5.60;;;;;;;9.75;51.23;94092.63;4989575;28;20234;-69
2023/04/12 06:30:27;;;;;;;8.27;6.23;;;;;;;9.71;51.71;94082.47;4990905;28;20223;-68
2023/04/12 06:32:53;;;;;;;6.10;5.53;;;;;;;9.67;52.35;94085.59;4990845;28;20255;-69
2023/04/12 06:35:20;;;;;;;8.32;6.40;;;;;;;9.72;52.16;94086.72;4990434;28;20253;-69
2023/04/12 06:37:45;;;;;;;6.60;5.30;;;;;;;9.62;52.36;94075.63;4990558;28;20285;-69
2023/04/12 06:40:11;;;;;;;6.20;5.60;;;;;;;9.80;51.84;94091.13;4990221;28;20223;-69
2023/04/12 06:42:37;;;;;;;6.97;5.80;;;;;;;9.94;50.47;94090.44;4989176;28;20278;-69
2023/04/12 06:45:03;;;;;;;6.18;5.43;;;;;;;10.00;50.16;94078.44;4990589;28;20203;-68
2023/04/12 06:47:29;;;;;;;7.17;5.00;;;;;;;9.93;49.98;94080.09;4990015;28;20215;-69
2023/04/12 06:49:56;;;;;;;5.37;4.30;;;;;;;10.07;50.08;94070.66;4993778;28;20227;-69
2023/04/12 06:52:26;;;;;;;4.43;4.03;;;;;;;10.19;49.13;94087.69;4994244;28;20298;-68
2023/04/12 06:54:52;;;;;;;3.70;3.40;;;;;;;10.15;49.57;94081.94;4989472;28;20235;-69
2023/04/12 06:57:17;;;;;;;3.87;3.57;;;;;;;10.04;49.57;94069.19;4992698;28;20215;-69
2023/04/12 06:59:43;;;;;;;5.57;3.80;;;;;;;10.04;49.63;94068.38;4995117;28;20282;-69
2023/04/12 07:02:08;;;;;;;4.00;3.40;;;;;;;10.01;49.63;94063.50;4993331;28;20224;-69
2023/04/12 07:04:34;;;;;;;5.97;3.93;;;;;;;10.12;49.38;94065.72;4993462;28;20231;-69
2023/04/12 07:06:59;;;;;;;5.15;3.45;;;;;;;10.36;48.55;94064.78;4992907;28;20223;-69
2023/04/12 07:09:25;;;;;;;4.43;3.67;;;;;;;10.28;48.81;94065.66;4993940;28;20249;-68
2023/04/12 07:11:52;;;;;;;3.93;3.50;;;;;;;10.45;48.93;94063.78;4988457;28;20208;-69
2023/04/12 07:14:17;;;;;;;4.10;3.70;;;;;;;10.72;48.07;94061.59;4987836;28;20576;-70
2023/04/12 07:16:43;;;;;;;5.10;3.80;;;;;;;10.78;47.56;94072.22;4992430;28;20239;-70
2023/04/12 07:19:08;;;;;;;4.67;3.23;;;;;;;10.90;47.04;94056.03;4985020;28;20282;-70
2023/04/12 07:21:34;;;;;;;3.97;3.58;;;;;;;11.08;47.25;94060.97;4990451;28;20295;-69
2023/04/12 07:24:00;;;;;;;3.90;3.50;;;;;;;11.11;46.37;94065.88;4989085;28;20216;-69
2023/04/12 07:26:26;;;;;;;4.30;3.43;;;;;;;10.87;46.58;94072.16;4990781;28;20226;-69
2023/04/12 07:28:51;;;;;;;5.60;4.20;;;;;;;10.87;46.64;94059.84;4993568;28;20223;-69
2023/04/12 07:31:16;;;;;;;3.80;3.40;;;;;;;10.86;46.88;94074.00;4990651;28;20294;-69
2023/04/12 07:33:42;;;;;;;5.70;3.57;;;;;;;10.95;45.90;94053.69;4992642;28;20241;-69
2023/04/12 07:36:08;;;;;;;4.00;3.50;;;;;;;10.67;46.54;94043.72;4991563;28;20235;-69
2023/04/12 07:38:33;;;;;;;4.28;3.85;;;;;;;10.66;46.94;94060.47;4988647;28;20216;-69
2023/04/12 07:40:59;;;;;;;3.77;3.47;;;;;;;10.62;47.62;94067.09;4992696;28;20224;-69
2023/04/12 07:43:24;;;;;;;3.60;3.30;;;;;;;10.77;47.56;94080.28;4989403;28;20235;-69
2023/04/12 07:45:50;;;;;;;3.92;3.63;;;;;;;10.73;47.38;94063.25;5004535;28;20234;-69
2023/04/12 07:48:16;;;;;;;3.70;3.40;;;;;;;10.70;47.15;94068.84;4989876;28;20188;-69
2023/04/12 07:50:42;;;;;;;3.93;3.40;;;;;;;10.69;46.76;94048.78;4990435;28;20191;-70
2023/04/12 07:53:27;;;;;;;3.50;2.97;;;;;;;10.72;46.74;94061.59;4991962;28;20257;-69
2023/04/12 07:55:54;;;;;;;6.57;3.30;;;;;;;10.96;45.92;94048.25;4990343;28;20220;-69
2023/04/12 07:58:21;;;;;;;3.00;2.70;;;;;;;10.95;45.30;94043.97;5000248;28;20235;-69
2023/04/12 08:00:46;;;;;;;2.47;2.27;;;;;;;11.01;43.78;94045.91;4989657;28;20315;-69
2023/04/12 08:03:13;;;;;;;2.53;2.00;;;;;;;10.70;43.89;94039.94;4991875;28;20278;-68
2023/04/12 08:05:40;;;;;;;3.20;2.10;;;;;;;11.02;41.95;94026.50;4992446;28;20252;-69
2023/04/12 08:08:06;;;;;;;2.63;2.43;;;;;;;11.00;42.30;94019.78;4992182;28;20330;-69
2023/04/12 08:10:31;;;;;;;2.60;2.33;;;;;;;11.09;42.28;94036.31;4992377;28;20289;-69
2023/04/12 08:12:57;;;;;;;2.50;2.30;;;;;;;11.06;42.61;94015.63;4992585;28;20251;-69
2023/04/12 08:15:23;;;;;;;2.40;2.20;;;;;;;11.08;42.38;94018.88;4991677;28;20266;-69
2023/04/12 08:17:49;;;;;;;2.50;2.10;;;;;;;11.22;41.81;94020.72;4996020;28;20203;-69
2023/04/12 08:20:14;;;;;;;3.50;2.20;;;;;;;11.30;39.93;94007.47;4992330;28;20223;-69
2023/04/12 08:22:45;;;;;;;4.03;2.75;;;;;;;11.09;40.49;94026.59;4974261;28;20227;-69
2023/04/12 08:25:10;;;;;;;2.37;2.17;;;;;;;11.13;40.55;94019.97;4992268;28;20230;-69
2023/04/12 08:27:38;;;;;;;3.47;2.20;;;;;;;11.08;40.62;94037.31;4988551;28;20219;-68
2023/04/12 08:30:04;;;;;;;2.87;1.97;;;;;;;10.96;40.41;94026.38;4990483;28;20190;-69
2023/04/12 08:32:30;;;;;;;2.22;2.03;;;;;;;11.20;39.56;94023.53;4991849;28;20223;-70
2023/04/12 08:34:59;;;;;;;2.10;1.80;;;;;;;11.09;38.95;94010.81;4991151;28;20285;-69
2023/04/12 08:37:25;;;;;;;2.53;1.50;;;;;;;11.19;38.32;94026.34;4991268;28;20247;-69
2023/04/12 08:39:50;;;;;;;1.90;1.80;;;;;;;11.23;38.43;94003.94;4992062;28;20247;-70
2023/04/12 08:42:16;;;;;;;3.10;1.80;;;;;;;11.51;38.35;94014.66;4991618;28;20222;-69
2023/04/12 08:44:42;;;;;;;4.07;1.77;;;;;;;11.35;39.16;94028.81;4991377;28;20694;-70
2023/04/12 08:47:09;;;;;;;3.03;1.87;;;;;;;11.40;38.15;94013.28;4991771;28;20222;-69
2023/04/12 08:49:35;;;;;;;1.88;1.73;;;;;;;11.47;37.57;94016.84;4991531;28;20219;-69
2023/04/12 08:52:06;;;;;;;4.00;1.80;;;;;;;11.77;36.86;94018.66;4991345;28;20226;-70
2023/04/12 08:54:33;;;;;;;2.38;1.75;;;;;;;11.81;37.04;94022.53;4990354;28;20224;-69
2023/04/12 08:57:01;;;;;;;2.95;1.63;;;;;;;12.00;36.58;94023.81;4991988;28;20207;-69
2023/04/12 08:59:28;;;;;;;4.18;1.83;;;;;;;12.02;36.24;94024.44;4991356;28;20246;-69
2023/04/12 09:01:55;;;;;;;2.37;1.90;;;;;;;11.91;36.34;94010.72;4991208;28;20264;-69
2023/04/12 09:04:21;;;;;;;2.08;1.83;;;;;;;11.99;36.56;94007.19;4995827;28;20250;-69
2023/04/12 09:06:46;;;;;;;1.65;1.45;;;;;;;12.18;36.22;94021.59;4990057;28;20646;-69
2023/04/12 09:09:13;;;;;;;1.50;1.40;;;;;;;12.19;36.31;94017.97;4991278;28;20195;-69
2023/04/12 09:11:39;;;;;;;3.17;1.80;;;;;;;12.20;36.14;94010.88;4991576;28;20199;-70
2023/04/12 09:14:21;;;;;;;1.63;1.40;;;;;;;12.23;35.50;94005.22;4991516;28;20232;-70
2023/04/12 09:16:47;;;;;;;4.03;1.75;;;;;;;12.39;35.25;94006.81;4980983;28;20251;-71
2023/04/12 09:19:13;;;;;;;1.50;1.40;;;;;;;12.24;35.48;94005.03;4990238;28;20235;-69
2023/04/12 09:21:52;;;;;;;2.20;1.70;;;;;;;12.29;35.49;94007.09;4991034;28;20235;-69
2023/04/12 09:24:17;;;;;;;4.07;1.75;;;;;;;12.42;33.71;94001.16;4992312;28;20199;-69
2023/04/12 09:26:43;;;;;;;1.30;1.20;;;;;;;12.49;33.21;93997.59;4991590;28;20190;-69
2023/04/12 09:29:24;;;;;;;2.33;1.30;;;;;;;12.51;33.45;93997.38;4990979;28;20227;-68
2023/04/12 09:32:01;;;;;;;2.08;1.13;;;;;;;12.85;32.66;93988.75;4988141;28;20243;-70
2023/04/12 09:34:26;;;;;;;1.40;1.30;;;;;;;12.68;33.01;93998.78;4977600;28;20222;-69
2023/04/12 09:36:52;;;;;;;2.22;1.50;;;;;;;12.51;33.28;93992.94;4991141;28;20227;-68
2023/04/12 09:39:18;;;;;;;2.20;1.40;;;;;;;12.26;32.38;94016.19;4988631;28;20194;-68
2023/04/12 09:41:44;;;;;;;1.50;1.40;;;;;;;12.34;32.10;93973.91;4999216;28;20195;-70
2023/04/12 09:44:29;;;;;;;2.40;1.40;;;;;;;12.62;32.03;93969.72;4991274;28;20223;-70
2023/04/12 09:46:54;;;;;;;1.35;1.13;;;;;;;13.00;31.20;93962.28;4988682;28;20218;-69
2023/04/12 09:49:38;;;;;;;1.92;1.05;;;;;;;12.89;30.87;93949.63;4984434;28;20278;-68
2023/04/12 09:52:05;;;;;;;2.53;1.40;;;;;;;12.99;30.44;93963.28;4988545;28;20223;-69
2023/04/12 09:54:35;;;;;;;2.20;1.42;;;;;;;13.22;30.96;93949.84;4990996;28;20227;-70
2023/04/12 09:57:03;;;;;;;1.88;1.40;;;;;;;13.39;31.21;93956.50;4995202;28;20215;-70
2023/04/12 09:59:31;;;;;;;1.40;1.30;;;;;;;13.33;31.84;93957.25;4993468;28;20370;-70
2023/04/12 10:01:57;;;;;;;2.70;1.17;;;;;;;13.38;32.10;93954.03;4991167;28;20694;-70
2023/04/12 10:04:23;;;;;;;2.90;1.77;;;;;;;13.37;32.12;93955.06;4993920;28;20231;-69
2023/04/12 10:06:49;;;;;;;1.75;1.20;;;;;;;13.40;30.21;93946.72;4995409;28;20222;-69
2023/04/12 10:09:16;;;;;;;1.42;1.33;;;;;;;13.22;28.72;93934.81;4990793;28;20186;-69
2023/04/12 10:11:43;;;;;;;2.72;1.25;;;;;;;12.97;28.66;93952.94;4989478;28;20188;-68
2023/04/12 10:14:10;;;;;;;1.35;1.02;;;;;;;13.16;27.32;93919.75;4985986;28;20227;-69
2023/04/12 10:16:39;;;;;;;0.93;0.90;;;;;;;13.13;25.42;93941.28;4990465;28;20227;-69
2023/04/12 10:19:05;;;;;;;1.92;1.08;;;;;;;13.15;25.40;93923.44;4988378;28;20228;-69
2023/04/12 10:21:31;;;;;;;2.65;0.90;;;;;;;13.34;26.01;93910.53;5004911;28;20222;-68
2023/04/12 10:23:57;;;;;;;1.25;1.00;;;;;;;13.67;25.33;93916.78;4994117;28;20188;-69
2023/04/12 10:26:23;;;;;;;1.70;1.10;;;;;;;13.58;25.43;93909.22;4994863;28;20269;-70
2023/04/12 10:29:26;;;;;;;1.02;0.90;;;;;;;13.96;25.66;93921.97;4986434;28;20231;-69
2023/04/12 10:31:56;;;;;;;2.22;1.02;;;;;;;13.93;24.98;93911.81;4984402;28;20238;-69
2023/04/12 10:34:29;;;;;;;1.40;0.85;;;;;;;14.09;25.13;93904.31;4987883;28;20223;-69
2023/04/12 10:36:57;;;;;;;1.55;1.30;;;;;;;14.25;25.71;93904.94;4992429;28;20228;-69
2023/04/12 10:39:51;;;;;;;1.58;1.00;;;;;;;14.10;25.55;93919.16;4994131;28;20188;-69
2023/04/12 10:42:19;;;;;;;1.23;0.98;;;;;;;14.40;24.99;93902.09;4993702;28;20188;-69
2023/04/12 10:44:46;;;;;;;2.80;1.20;;;;;;;14.38;24.64;93896.19;4994194;28;20183;-68
2023/04/12 10:47:11;;;;;;;4.68;1.60;;;;;;;14.39;24.38;93892.56;4993959;28;20682;-68
2023/04/12 10:49:38;;;;;;;2.63;0.80;;;;;;;14.44;23.68;93890.13;4994256;28;20265;-69
2023/04/12 10:52:11;;;;;;;3.90;1.27;;;;;;;14.64;23.38;93900.72;4998751;28;20294;-68
2023/04/12 10:54:37;;;;;;;2.60;1.27;;;;;;;14.71;23.31;93893.59;5006347;28;20212;-69
2023/04/12 10:57:04;;;;;;;1.00;0.90;;;;;;;14.74;22.32;93896.66;4994460;28;20214;-69
2023/04/12 10:59:55;;;;;;;4.68;1.20;;;;;;;14.84;21.90;93890.13;4990623;28;20283;-69
2023/04/12 11:02:21;;;;;;;1.17;0.95;;;;;;;15.02;22.13;93887.66;4987997;28;20228;-70
2023/04/12 11:05:09;;;;;;;1.38;1.00;;;;;;;15.30;22.23;93873.34;4993329;28;20238;-70
2023/04/12 11:07:42;;;;;;;3.03;1.08;;;;;;;15.14;22.08;93880.72;4990501;28;20295;-69
2023/04/12 11:10:20;;;;;;;3.88;1.15;;;;;;;15.41;21.53;93867.38;4984744;28;20235;-69
2023/04/12 11:12:49;;;;;;;2.90;1.10;;;;;;;15.50;20.48;93891.81;4988158;28;20362;-70
2023/04/12 11:15:15;;;;;;;2.28;0.85;;;;;;;15.13;20.86;93881.75;4990821;28;20198;-69
2023/04/12 11:17:41;;;;;;;2.80;1.13;;;;;;;14.98;21.06;93883.81;4990297;28;20219;-69
2023/04/12 11:20:11;;;;;;;1.15;0.95;;;;;;;14.98;21.05;93870.56;4993731;28;20226;-70
2023/04/12 11:22:37;;;;;;;1.52;0.85;;;;;;;15.10;21.40;93886.63;4990056;28;20220;-70
2023/04/12 11:25:03;;;;;;;2.28;1.02;;;;;;;15.14;21.52;93869.31;5002317;28;20246;-70
2023/04/12 11:27:30;;;;;;;2.13;1.00;;;;;;;15.18;21.95;93871.34;4992607;28;20230;-69
2023/04/12 11:29:58;;;;;;;1.15;1.00;;;;;;;15.26;22.40;93867.63;4992332;28;20274;-70
2023/04/12 11:32:27;;;;;;;2.20;0.90;;;;;;;15.44;21.09;93896.91;4990790;28;20238;-70
2023/04/12 11:34:55;;;;;;;1.17;0.90;;;;;;;15.25;21.85;93887.19;4991613;28;20533;-70